Terminal Aerodrome Forecast
Issued by NWS Duluth, MN

Home | Current Version | Previous Version | Text Only | Print | Product List | Glossary On
Versions: 1 2 3 4 5 6 7 8 9 10 11 12 13 14 15 16 17 18 19 20 21
295
FTUS43 KDLH 221120
TAFINL
TAF
KINL 221120Z 2212/2312 VRB03KT P6SM SCT090
     FM222000 20006KT 4SM -SN OVC035
     FM222100 20006KT 2SM -SN OVC026
     FM222300 20005KT 4SM -SN OVC018
     FM230000 20004KT P6SM OVC027
     FM230400 24004KT P6SM BKN050
      AMD NOT SKED=

USA.gov is the U.S. government's official web portal to all federal, state and local government web resources and services.